Thackeray, Illinois
Current Conditions -  °F | °C
As of 2:15 PM on Wednesday 26 Nov 2014 (Local Time) from KFWC Reporting Station
Overcast Overcast  
Wind Chill: 32°   Ceiling: 6000
Heat Index: 38°   Visibility: 10mi
Dew Point: 29°   Wind: 8mph
Humidity: 71%   Direction: 100°E
Pressure: 30"   Gusts: NA
Location:  38.1018°N, 88.4953°W
Report Text: KFWC 262015Z AUTO 10007KT 10SM SCT050 BKN060 OVC070 03/M02 A3000 RMK AO1 T00311017
Loading
Personal Weather Stations






























Interactive Weather Map New forecast layout! Learn more

10-Day Weather Forecast

Advertisements
Track Severe Weather on mobile